This is the latest recevied weather packets stored in our database for station/object KI6PPU. If no packets are shown the sender has not sent any weather packets the latest 1 day(s).
| Time | Temp. | Humidity | Pressure | Rain* | Wind** | Luminosity | Snow |
|---|---|---|---|---|---|---|---|
| 1778012494 | 15° C | 84% | 1018 hPa | 0 mm | 0 m/s | 150 W/m² | - |
| 1778012191 | 15° C | 83% | 1017.8 hPa | 0 mm | 0.45 m/s, 187° | 154 W/m² | - |
| 1778011889 | 15° C | 81% | 1018 hPa | 0 mm | 1.34 m/s, 117° | 164 W/m² | - |
| 1778011587 | 15° C | 80% | 1018 hPa | 0 mm | 0 m/s | 163 W/m² | - |
| 1778011284 | 15° C | 81% | 1017.9 hPa | 0 mm | 0 m/s | 184 W/m² | - |
| 1778010980 | 15° C | 82% | 1018.1 hPa | 0 mm | 0.89 m/s, 253° | 219 W/m² | - |
| 1778010677 | 15° C | 81% | 1018 hPa | 0 mm | 1.34 m/s, 135° | 248 W/m² | - |
| 1778010374 | 15° C | 82% | 1018 hPa | 0 mm | 1.79 m/s, 206° | 252 W/m² | - |
| 1778010070 | 14.44° C | 83% | 1018 hPa | 0 mm | 0.89 m/s, 270° | 226 W/m² | - |
| 1778009767 | 15° C | 82% | 1017.9 hPa | 0 mm | 0.89 m/s, 194° | 215 W/m² | - |
| 1778009464 | 15° C | 84% | 1018.1 hPa | 0 mm | 1.34 m/s, 220° | 226 W/m² | - |
| 1778009163 | 15° C | 82% | 1018.1 hPa | 0 mm | 0.89 m/s, 315° | 225 W/m² | - |
| 1778008860 | 15° C | 84% | 1018.2 hPa | 0 mm | 0 m/s | 231 W/m² | - |
| 1778008558 | 15° C | 85% | 1018 hPa | 0 mm | 0 m/s | 291 W/m² | - |
| 1778008256 | 15° C | 84% | 1018 hPa | 0 mm | 0.45 m/s, 6° | 270 W/m² | - |
| 1778007950 | 15° C | 84% | 1017.9 hPa | 0 mm | 0.89 m/s, 210° | 204 W/m² | - |
| 1778007646 | 15° C | 84% | 1017.9 hPa | 0 mm | 1.34 m/s, 352° | 191 W/m² | - |
| 1778007343 | 15.56° C | 82% | 1018.1 hPa | 0 mm | 0.89 m/s, 275° | 207 W/m² | - |
| 1778007040 | 15.56° C | 79% | 1018 hPa | 0 mm | 1.34 m/s, 320° | 253 W/m² | - |
| 1778006737 | 15.56° C | 79% | 1017.8 hPa | 0 mm | 0.89 m/s, 338° | 345 W/m² | - |
| 1778006433 | 16.67° C | 81% | 1017.9 hPa | 0 mm | 0.45 m/s, 285° | 389 W/m² | - |
| 1778006130 | 16.67° C | 81% | 1017.7 hPa | 0 mm | 0 m/s | 527 W/m² | - |
| 1778005828 | 15.56° C | 77% | 1018 hPa | 0 mm | 0.89 m/s, 154° | 549 W/m² | - |
| 1778005524 | 15.56° C | 78% | 1017.7 hPa | 0 mm | 0.89 m/s, 70° | 516 W/m² | - |
| 1778005220 | 16.11° C | 80% | 1017.6 hPa | 0 mm | 0.45 m/s, 277° | 428 W/m² | - |
* Rain latest hour (hover to see other rain measurements)
** Current wind speed in m/s (hover to see current wind gust speed)